Terminal Aerodrome Forecast
Issued by NWS

Home | Current Version | Previous Version | Text Only | Print | Product List | Glossary On
Versions: 1 2 3 4 5 6 7 8 9 10 11 12 13 14 15 16 17 18 19 20 21 22 23 24 25 26 27 28 29 30 31 32 33 34 35 36 37 38 39 40 41 42 43 44 45 46 47
000
FTUS43 KMKX 021455 AAA
TAFENW
TAF AMD
KENW 021455Z 0215/0312 17008KT P6SM VCSH SCT025 BKN035
     FM021600 17009KT 6SM BR SCT025 BKN040
     FM022000 16008KT P6SM VCTS SCT020 BKN040CB
     FM022300 12009KT 4SM -TSRA BR SCT006 OVC020CB
     FM030300 15006KT 3/4SM -TSRA BR OVC005CB
     FM030600 23011KT 3/4SM -SHRA BR VCTS OVC004CB=

USA.gov is the U.S. government's official web portal to all federal, state and local government web resources and services.